Time;durP1;ratioP1;P1;durP2;ratioP2;P2;SDS_P1;SDS_P2;PMS_P1;PMS_P2;Temp;Humidity;BMP_temperature;BMP_pressure;BME280_temperature;BME280_humidity;BME280_pressure;Samples;Min_cycle;Max_cycle;Signal;HPM_P1;HPM_P2
2023/04/02 00:00:09;;;;;;;3.03;0.90;;;14.40;55.90;;;;;;5043986;28;20461;-50
2023/04/02 00:02:53;;;;;;;0.70;0.60;;;14.40;56.00;;;;;;5047662;28;20478;-51
2023/04/02 00:05:29;;;;;;;0.90;0.70;;;14.50;55.80;;;;;;5036058;28;20498;-50
2023/04/02 00:08:17;;;;;;;1.03;0.77;;;14.50;55.80;;;;;;5041725;28;20516;-51
2023/04/02 00:10:58;;;;;;;1.30;0.70;;;14.50;55.70;;;;;;5047653;28;20443;-52
2023/04/02 00:13:28;;;;;;;0.90;0.63;;;14.40;55.70;;;;;;5046621;28;20455;-51
2023/04/02 00:15:56;;;;;;;1.17;0.80;;;14.30;56.30;;;;;;5043039;28;20537;-51
2023/04/02 00:18:22;;;;;;;0.90;0.60;;;14.20;56.40;;;;;;5033433;28;20449;-52
2023/04/02 00:21:00;;;;;;;0.80;0.80;;;14.30;56.50;;;;;;5041878;28;20443;-51
2023/04/02 00:23:27;;;;;;;0.80;0.80;;;14.40;56.40;;;;;;5038387;28;20493;-54
2023/04/02 00:25:53;;;;;;;1.37;1.00;;;14.40;56.20;;;;;;5045873;28;20450;-54
2023/04/02 00:28:21;;;;;;;1.80;1.03;;;14.30;56.10;;;;;;5039946;28;20447;-50
2023/04/02 00:30:53;;;;;;;0.70;0.70;;;14.40;56.30;;;;;;5045392;28;20803;-51
2023/04/02 00:33:23;;;;;;;0.80;0.63;;;14.50;56.30;;;;;;5043623;28;20444;-50
2023/04/02 00:35:51;;;;;;;0.93;0.80;;;14.60;56.00;;;;;;5038003;28;20494;-50
2023/04/02 00:38:30;;;;;;;0.83;0.83;;;14.50;55.80;;;;;;5045259;28;20926;-51
2023/04/02 00:41:00;;;;;;;1.17;0.80;;;14.50;55.80;;;;;;5044111;28;20449;-51
2023/04/02 00:43:29;;;;;;;0.97;0.80;;;14.60;55.80;;;;;;5049174;28;20815;-50
2023/04/02 00:46:02;;;;;;;1.20;0.90;;;14.60;55.60;;;;;;5042170;28;20465;-51
2023/04/02 00:48:31;;;;;;;0.90;0.90;;;14.50;55.70;;;;;;5041209;28;20930;-49
2023/04/02 00:51:06;;;;;;;0.80;0.80;;;14.60;55.70;;;;;;5039570;28;20447;-51
2023/04/02 00:53:34;;;;;;;0.83;0.73;;;14.60;55.70;;;;;;5036283;28;20855;-51
2023/04/02 00:56:02;;;;;;;1.37;0.60;;;14.60;55.50;;;;;;5036484;28;20483;-55
2023/04/02 00:58:32;;;;;;;1.57;0.70;;;14.50;55.60;;;;;;5038358;28;20555;-53
2023/04/02 01:00:59;;;;;;;0.60;0.60;;;14.50;55.60;;;;;;5033278;28;20572;-51
2023/04/02 01:03:36;;;;;;;0.80;0.80;;;14.50;55.60;;;;;;5044454;28;20501;-50
2023/04/02 01:06:11;;;;;;;1.10;0.70;;;14.40;55.70;;;;;;5034778;28;20454;-51
2023/04/02 01:08:40;;;;;;;0.87;0.67;;;14.50;55.70;;;;;;5038673;28;20457;-51
2023/04/02 01:11:28;;;;;;;0.80;0.70;;;14.60;55.60;;;;;;5046348;28;20460;-53
2023/04/02 01:14:08;;;;;;;1.20;0.80;;;14.40;55.50;;;;;;5042438;28;20522;-51
2023/04/02 01:16:49;;;;;;;1.13;1.13;;;14.50;55.60;;;;;;5033750;28;20480;-50
2023/04/02 01:19:36;;;;;;;2.40;1.00;;;14.60;55.70;;;;;;5036598;28;20455;-53
2023/04/02 01:22:13;;;;;;;1.70;0.80;;;14.60;55.60;;;;;;5048415;28;20981;-51
2023/04/02 01:24:42;;;;;;;0.70;0.70;;;14.60;55.60;;;;;;5045130;28;20457;-50
2023/04/02 01:27:23;;;;;;;0.77;0.70;;;14.60;55.40;;;;;;5040049;28;20443;-50
2023/04/02 01:29:56;;;;;;;0.80;0.80;;;14.60;55.30;;;;;;5033320;28;20507;-50
2023/04/02 01:32:24;;;;;;;1.10;1.07;;;14.60;55.30;;;;;;5031249;28;20822;-53
2023/04/02 01:34:51;;;;;;;0.90;0.90;;;14.70;55.40;;;;;;5027799;28;20540;-51
2023/04/02 01:37:28;;;;;;;2.80;0.80;;;14.70;55.40;;;;;;5041121;28;20435;-50
2023/04/02 01:40:30;;;;;;;0.90;0.70;;;14.70;55.30;;;;;;5039253;28;20462;-50
2023/04/02 01:42:59;;;;;;;0.70;0.70;;;14.70;55.40;;;;;;5035676;28;20446;-53
2023/04/02 01:45:25;;;;;;;1.03;0.60;;;14.80;55.40;;;;;;5031123;28;20459;-54
2023/04/02 01:47:51;;;;;;;0.83;0.80;;;14.70;55.10;;;;;;5038870;28;20442;-51
2023/04/02 01:50:37;;;;;;;0.80;0.80;;;14.80;55.20;;;;;;5041739;28;20930;-52
2023/04/02 01:53:06;;;;;;;0.80;0.70;;;14.80;55.10;;;;;;5042006;28;20193;-52
2023/04/02 01:55:39;;;;;;;1.57;0.70;;;14.80;55.00;;;;;;5047426;28;21392;-53
2023/04/02 01:58:06;;;;;;;1.07;0.60;;;14.80;55.10;;;;;;5043301;28;20439;-51
2023/04/02 02:00:35;;;;;;;1.43;0.70;;;14.80;55.30;;;;;;5041826;28;21289;-52
2023/04/02 02:03:01;;;;;;;0.60;0.60;;;14.80;55.30;;;;;;5036609;28;20440;-50
2023/04/02 02:05:28;;;;;;;1.80;0.80;;;14.80;55.40;;;;;;5043569;28;20435;-54
2023/04/02 02:07:56;;;;;;;1.27;0.83;;;14.80;55.50;;;;;;5044500;28;20527;-55
2023/04/02 02:10:32;;;;;;;0.70;0.70;;;14.90;55.60;;;;;;5037295;28;20478;-50
2023/04/02 02:12:59;;;;;;;1.87;0.80;;;14.90;55.60;;;;;;5039656;28;20446;-51
2023/04/02 02:15:25;;;;;;;0.60;0.60;;;14.90;55.80;;;;;;5044645;28;20489;-52
2023/04/02 02:17:57;;;;;;;1.30;0.80;;;14.90;56.00;;;;;;5041992;28;20440;-50
2023/04/02 02:20:23;;;;;;;0.60;0.60;;;14.90;56.10;;;;;;5039166;28;20443;-50
2023/04/02 02:22:50;;;;;;;0.90;0.60;;;14.90;56.00;;;;;;5047143;28;20482;-50
2023/04/02 02:25:23;;;;;;;0.70;0.70;;;14.90;56.00;;;;;;5030826;28;20516;-52
2023/04/02 02:27:51;;;;;;;0.60;0.60;;;14.90;56.10;;;;;;5038461;28;20439;-52
2023/04/02 02:30:20;;;;;;;0.60;0.60;;;14.80;56.00;;;;;;5045838;28;20460;-50
2023/04/02 02:33:15;;;;;;;0.70;0.60;;;14.80;56.00;;;;;;5048147;28;20432;-54
2023/04/02 02:35:51;;;;;;;0.80;0.73;;;14.80;56.10;;;;;;5048062;28;20482;-55
2023/04/02 02:38:31;;;;;;;0.80;0.80;;;14.70;56.30;;;;;;5049292;28;20490;-54
2023/04/02 02:41:15;;;;;;;0.50;0.50;;;14.50;56.80;;;;;;5046382;28;20456;-55
2023/04/02 02:43:48;;;;;;;0.60;0.60;;;14.40;57.00;;;;;;5047554;28;20446;-50
2023/04/02 02:46:19;;;;;;;0.90;0.60;;;14.40;57.00;;;;;;5050289;28;20525;-50
2023/04/02 02:48:46;;;;;;;0.90;0.80;;;14.40;57.30;;;;;;5050500;28;20533;-50
2023/04/02 02:51:21;;;;;;;0.63;0.60;;;14.50;57.20;;;;;;5047016;28;20475;-50
2023/04/02 02:53:54;;;;;;;1.80;0.93;;;14.50;57.00;;;;;;5048460;28;20562;-50
2023/04/02 02:56:22;;;;;;;0.97;0.70;;;14.60;57.00;;;;;;5048947;28;20539;-50
2023/04/02 02:58:51;;;;;;;0.60;0.60;;;14.60;56.90;;;;;;5044383;28;20757;-50
2023/04/02 03:01:17;;;;;;;0.70;0.63;;;14.60;56.80;;;;;;5050208;28;20546;-51
2023/04/02 03:03:44;;;;;;;0.60;0.60;;;14.60;56.70;;;;;;5050307;28;20434;-52
2023/04/02 03:06:15;;;;;;;1.03;0.70;;;14.70;56.70;;;;;;5041963;28;20440;-51
2023/04/02 03:08:41;;;;;;;2.87;0.70;;;14.70;56.70;;;;;;5049666;28;20860;-50
2023/04/02 03:11:21;;;;;;;0.80;0.70;;;14.70;56.60;;;;;;5048573;28;20443;-53
2023/04/02 03:13:49;;;;;;;0.77;0.63;;;14.70;56.60;;;;;;5046955;28;20192;-51
2023/04/02 03:16:47;;;;;;;0.70;0.63;;;14.70;56.50;;;;;;5049163;28;20480;-50
2023/04/02 03:19:27;;;;;;;2.30;0.77;;;14.70;56.50;;;;;;5028929;28;20889;-51
2023/04/02 03:22:15;;;;;;;0.90;0.90;;;14.70;56.50;;;;;;5040512;28;20517;-50
2023/04/02 03:25:25;;;;;;;1.47;0.80;;;14.80;56.50;;;;;;5050729;28;20486;-51
2023/04/02 03:27:58;;;;;;;0.93;0.83;;;14.80;56.40;;;;;;4961743;28;20481;-51
2023/04/02 03:30:26;;;;;;;1.23;0.80;;;14.80;56.50;;;;;;5026575;28;20991;-50
2023/04/02 03:32:56;;;;;;;1.00;0.90;;;14.70;56.50;;;;;;5044531;28;20444;-52
2023/04/02 03:35:46;;;;;;;1.37;0.80;;;14.70;56.60;;;;;;5050054;28;20548;-50
2023/04/02 03:38:29;;;;;;;1.53;0.80;;;14.70;56.60;;;;;;5046499;28;20962;-50
2023/04/02 03:41:08;;;;;;;1.00;0.80;;;14.80;56.60;;;;;;5039718;28;20448;-52
2023/04/02 03:43:41;;;;;;;0.70;0.70;;;14.80;56.40;;;;;;5045375;28;20878;-51
2023/04/02 03:46:27;;;;;;;0.60;0.60;;;14.80;56.40;;;;;;5045991;28;20439;-52
2023/04/02 03:49:00;;;;;;;1.03;0.83;;;14.80;56.30;;;;;;5047113;28;20466;-50
2023/04/02 03:51:31;;;;;;;0.70;0.60;;;14.80;56.30;;;;;;5045147;28;20446;-51
2023/04/02 03:53:57;;;;;;;0.80;0.80;;;14.90;56.40;;;;;;5045788;28;20997;-53
2023/04/02 03:56:28;;;;;;;0.70;0.70;;;14.80;56.30;;;;;;5043748;28;20439;-51
2023/04/02 03:59:31;;;;;;;1.50;0.80;;;14.80;55.90;;;;;;5049626;28;20200;-50
2023/04/02 04:02:23;;;;;;;0.80;0.70;;;14.80;56.00;;;;;;5046905;28;20454;-50
2023/04/02 04:04:49;;;;;;;1.17;0.90;;;14.80;55.90;;;;;;5037069;28;20451;-51
2023/04/02 04:07:40;;;;;;;0.80;0.80;;;14.90;55.90;;;;;;5045700;28;20524;-51
2023/04/02 04:10:07;;;;;;;0.97;0.70;;;14.90;55.80;;;;;;5023440;28;20446;-50
2023/04/02 04:12:41;;;;;;;1.43;0.80;;;14.90;55.80;;;;;;5047101;28;20505;-49
2023/04/02 04:15:19;;;;;;;0.80;0.80;;;14.90;56.00;;;;;;5050658;28;20491;-50
2023/04/02 04:18:12;;;;;;;1.60;0.80;;;15.00;56.10;;;;;;5048849;28;20536;-50
2023/04/02 04:20:47;;;;;;;0.97;0.90;;;14.90;56.00;;;;;;5037113;28;20458;-51
2023/04/02 04:23:34;;;;;;;0.80;0.80;;;14.90;56.00;;;;;;5030244;28;20439;-50
2023/04/02 04:26:23;;;;;;;1.20;0.90;;;14.90;56.00;;;;;;5036193;28;20935;-51
2023/04/02 04:29:26;;;;;;;2.30;0.73;;;14.90;55.80;;;;;;5044173;28;21257;-50
2023/04/02 04:31:54;;;;;;;2.07;1.00;;;14.90;55.70;;;;;;5033468;28;21015;-51
2023/04/02 04:34:28;;;;;;;1.13;1.03;;;14.90;55.70;;;;;;5040051;28;20478;-51
2023/04/02 04:37:00;;;;;;;1.03;0.93;;;14.90;56.50;;;;;;5049057;28;20811;-51
2023/04/02 04:39:43;;;;;;;0.90;0.90;;;14.90;56.00;;;;;;5042011;28;20457;-51
2023/04/02 04:42:23;;;;;;;1.30;0.80;;;14.90;55.90;;;;;;5040508;28;20461;-52
2023/04/02 04:45:26;;;;;;;0.80;0.80;;;14.90;55.90;;;;;;5031370;28;20451;-50
2023/04/02 04:48:07;;;;;;;1.20;1.00;;;14.90;55.80;;;;;;5033441;28;20968;-50
2023/04/02 04:50:56;;;;;;;0.87;0.80;;;14.90;55.90;;;;;;5034724;28;20533;-52
2023/04/02 04:53:25;;;;;;;1.10;1.00;;;14.90;55.80;;;;;;5030277;28;20483;-50
2023/04/02 04:55:54;;;;;;;1.30;0.97;;;14.90;55.90;;;;;;5036225;28;20487;-50
2023/04/02 04:58:22;;;;;;;1.10;1.00;;;14.80;55.90;;;;;;5036904;28;20498;-51
2023/04/02 05:01:06;;;;;;;1.30;0.90;;;14.70;56.00;;;;;;5035679;28;20440;-50
2023/04/02 05:03:38;;;;;;;1.70;1.00;;;14.80;55.90;;;;;;5045791;28;20450;-49
2023/04/02 05:06:31;;;;;;;1.90;0.87;;;14.90;56.00;;;;;;5046417;28;20451;-51
2023/04/02 05:09:02;;;;;;;1.07;0.87;;;14.90;56.00;;;;;;5037323;28;20522;-50
2023/04/02 05:11:38;;;;;;;1.00;1.00;;;14.90;56.00;;;;;;5037910;28;20443;-49
2023/04/02 05:14:22;;;;;;;0.80;0.80;;;14.90;56.00;;;;;;5038283;28;20533;-48
2023/04/02 05:17:02;;;;;;;1.37;1.10;;;15.00;55.90;;;;;;5035762;28;20431;-49
2023/04/02 05:19:41;;;;;;;1.20;1.10;;;15.00;55.90;;;;;;5039839;28;20974;-49
2023/04/02 05:22:27;;;;;;;2.40;1.33;;;15.00;56.00;;;;;;5042107;28;20923;-49
2023/04/02 05:25:13;;;;;;;2.17;1.30;;;15.00;56.00;;;;;;5044870;28;21008;-49
2023/04/02 05:27:53;;;;;;;1.67;1.23;;;15.00;56.10;;;;;;5048064;28;20454;-50
2023/04/02 05:30:57;;;;;;;1.60;1.10;;;15.00;56.10;;;;;;5041914;28;20458;-52
2023/04/02 05:33:27;;;;;;;1.97;1.43;;;15.00;56.20;;;;;;5038790;28;20944;-48
2023/04/02 05:36:07;;;;;;;6.10;1.47;;;15.00;56.40;;;;;;5039653;28;20483;-48
2023/04/02 05:38:36;;;;;;;2.00;1.33;;;15.00;57.50;;;;;;5049014;28;20812;-48
2023/04/02 05:41:30;;;;;;;2.10;1.20;;;15.20;58.70;;;;;;5032009;28;20443;-48
2023/04/02 05:44:03;;;;;;;2.70;1.20;;;15.50;58.80;;;;;;5034320;28;20442;-48
2023/04/02 05:46:35;;;;;;;5.90;1.53;;;15.60;57.90;;;;;;5036915;28;20459;-48
2023/04/02 05:49:05;;;;;;;2.10;1.40;;;15.70;57.20;;;;;;5043089;28;20470;-48
2023/04/02 05:51:44;;;;;;;3.70;1.53;;;15.90;56.70;;;;;;5044867;28;20493;-48
2023/04/02 05:54:26;;;;;;;3.40;1.33;;;15.90;56.00;;;;;;5043646;28;20509;-51
2023/04/02 05:57:02;;;;;;;1.73;1.40;;;16.00;55.80;;;;;;5041419;28;20960;-48
2023/04/02 05:59:39;;;;;;;5.23;1.90;;;16.00;55.30;;;;;;5040003;28;20437;-48
2023/04/02 06:02:14;;;;;;;2.40;1.90;;;16.00;55.30;;;;;;5041508;28;20455;-48
2023/04/02 06:04:46;;;;;;;3.17;1.80;;;16.10;55.10;;;;;;5045067;28;20449;-48
2023/04/02 06:07:55;;;;;;;1.23;1.20;;;16.10;54.90;;;;;;5046582;28;20946;-48
2023/04/02 06:10:28;;;;;;;3.53;2.07;;;16.20;54.70;;;;;;4947408;28;20490;-49
2023/04/02 06:13:07;;;;;;;1.20;1.10;;;16.20;54.40;;;;;;4951890;29;21136;-51
2023/04/02 06:15:37;;;;;;;1.13;1.03;;;16.20;54.30;;;;;;5006243;28;20577;-52
2023/04/02 06:18:07;;;;;;;1.20;1.10;;;16.10;54.30;;;;;;5042313;28;20458;-49
2023/04/02 06:20:34;;;;;;;1.30;1.20;;;16.10;54.30;;;;;;5040291;28;20455;-48
2023/04/02 06:23:13;;;;;;;2.37;1.20;;;16.10;54.40;;;;;;5046146;28;20442;-51
2023/04/02 06:26:00;;;;;;;1.50;1.30;;;16.20;54.60;;;;;;5045099;28;20446;-51
2023/04/02 06:28:33;;;;;;;2.67;1.33;;;16.10;54.50;;;;;;5037272;28;20951;-49
2023/04/02 06:31:06;;;;;;;2.00;1.47;;;16.20;54.70;;;;;;5042127;28;20435;-51
2023/04/02 06:33:32;;;;;;;1.73;1.63;;;16.20;54.70;;;;;;5036017;28;20436;-51
2023/04/02 06:35:59;;;;;;;1.07;0.97;;;16.20;54.90;;;;;;5052811;28;20546;-50
2023/04/02 06:38:30;;;;;;;1.87;1.07;;;16.20;54.80;;;;;;5043056;28;20279;-49
2023/04/02 06:41:17;;;;;;;1.10;1.00;;;16.20;54.80;;;;;;5041086;28;20930;-49
2023/04/02 06:43:51;;;;;;;1.63;1.10;;;16.30;54.70;;;;;;5042952;28;20469;-49
2023/04/02 06:46:33;;;;;;;1.50;1.20;;;16.30;54.90;;;;;;5042716;28;20690;-49
2023/04/02 06:49:15;;;;;;;2.00;1.30;;;16.40;54.90;;;;;;5039826;28;20478;-48
2023/04/02 06:51:43;;;;;;;1.53;1.43;;;16.40;54.50;;;;;;5042379;28;20429;-48
2023/04/02 06:54:16;;;;;;;2.30;1.43;;;16.40;54.40;;;;;;5045050;28;20850;-49
2023/04/02 06:56:50;;;;;;;2.97;1.70;;;16.40;54.50;;;;;;5048337;28;20454;-51
2023/04/02 06:59:16;;;;;;;1.60;1.47;;;16.40;54.40;;;;;;5044386;28;20447;-52
2023/04/02 07:01:56;;;;;;;1.60;1.50;;;16.40;54.40;;;;;;5046119;28;20447;-52
2023/04/02 07:04:22;;;;;;;1.20;1.10;;;16.40;54.10;;;;;;5045158;28;20450;-49
2023/04/02 07:06:48;;;;;;;1.23;1.10;;;16.10;54.40;;;;;;5034279;28;20428;-50
2023/04/02 07:09:14;;;;;;;0.97;0.97;;;16.10;54.70;;;;;;5049295;28;20486;-48
2023/04/02 07:11:40;;;;;;;1.80;1.30;;;16.10;54.90;;;;;;5046190;28;20196;-48
2023/04/02 07:14:05;;;;;;;1.60;1.20;;;16.20;54.90;;;;;;5046353;28;20197;-48
2023/04/02 07:16:33;;;;;;;1.30;1.20;;;16.30;54.80;;;;;;5047504;28;20193;-51
2023/04/02 07:18:59;;;;;;;1.27;1.07;;;16.30;54.70;;;;;;5043853;28;21201;-49
2023/04/02 07:21:26;;;;;;;1.40;1.10;;;16.30;54.80;;;;;;5039531;28;20856;-53
2023/04/02 07:23:53;;;;;;;1.07;1.00;;;16.30;54.50;;;;;;5040183;28;20498;-53
2023/04/02 07:26:26;;;;;;;1.20;1.10;;;16.20;54.20;;;;;;5048620;28;20471;-49
2023/04/02 07:28:53;;;;;;;3.07;1.50;;;16.20;54.40;;;;;;5042509;28;20458;-49
2023/04/02 07:31:26;;;;;;;1.70;1.30;;;16.30;54.40;;;;;;5046126;28;20467;-51
2023/04/02 07:33:58;;;;;;;1.43;1.33;;;16.40;54.50;;;;;;5034453;28;20458;-52
2023/04/02 07:36:25;;;;;;;1.83;1.37;;;16.40;54.40;;;;;;5036384;28;21186;-52
2023/04/02 07:38:51;;;;;;;1.50;1.40;;;16.50;54.20;;;;;;5035716;28;20523;-49
2023/04/02 07:41:18;;;;;;;2.70;1.40;;;16.50;54.10;;;;;;5034457;28;20872;-50
2023/04/02 07:43:44;;;;;;;0.90;0.90;;;16.60;54.10;;;;;;5051524;28;21206;-50
2023/04/02 07:46:10;;;;;;;3.00;1.30;;;16.50;54.00;;;;;;5050888;28;20431;-49
2023/04/02 07:48:36;;;;;;;1.57;1.47;;;16.50;54.10;;;;;;5051282;28;20785;-48
2023/04/02 07:51:02;;;;;;;1.27;1.17;;;16.60;53.60;;;;;;5035844;28;20498;-48
2023/04/02 07:53:36;;;;;;;1.37;1.20;;;16.60;53.40;;;;;;5035013;28;20269;-48
2023/04/02 07:56:04;;;;;;;1.23;1.13;;;16.60;53.40;;;;;;5050240;28;20494;-49
2023/04/02 07:58:31;;;;;;;1.73;1.10;;;16.60;53.30;;;;;;5049867;28;20435;-51
2023/04/02 08:00:57;;;;;;;2.37;1.30;;;16.70;53.40;;;;;;5039383;28;20431;-48
2023/04/02 08:03:23;;;;;;;2.20;1.23;;;16.80;53.40;;;;;;5045413;28;20438;-49
2023/04/02 08:05:57;;;;;;;1.20;1.10;;;16.80;53.20;;;;;;5041706;28;20451;-49
2023/04/02 08:08:24;;;;;;;1.47;0.80;;;16.90;53.00;;;;;;5041536;28;20583;-48
2023/04/02 08:10:50;;;;;;;4.30;1.40;;;16.80;52.90;;;;;;5049194;28;20494;-52
2023/04/02 08:13:18;;;;;;;1.40;1.10;;;16.90;52.80;;;;;;5032492;28;20482;-49
2023/04/02 08:15:44;;;;;;;1.97;1.10;;;16.90;52.50;;;;;;5047849;28;20494;-51
2023/04/02 08:18:10;;;;;;;1.47;1.37;;;17.00;52.70;;;;;;5043582;28;20451;-48
2023/04/02 08:20:37;;;;;;;2.00;1.33;;;17.00;52.40;;;;;;5043694;28;20443;-48
2023/04/02 08:23:03;;;;;;;1.10;1.00;;;17.10;52.30;;;;;;5041803;28;20450;-50
2023/04/02 08:25:29;;;;;;;1.20;1.10;;;17.10;52.20;;;;;;5052107;28;20423;-49
2023/04/02 08:27:55;;;;;;;2.13;1.00;;;17.20;52.20;;;;;;5047965;28;20435;-48
2023/04/02 08:30:21;;;;;;;2.60;1.37;;;17.20;51.80;;;;;;5038986;28;20198;-50
2023/04/02 08:32:46;;;;;;;0.97;0.97;;;17.10;51.70;;;;;;5037086;28;21112;-49
2023/04/02 08:35:15;;;;;;;3.40;1.20;;;17.10;51.80;;;;;;5034687;28;22254;-49
2023/04/02 08:37:41;;;;;;;1.37;1.27;;;17.10;51.80;;;;;;5038748;28;20192;-49
2023/04/02 08:40:17;;;;;;;1.63;1.30;;;17.10;51.90;;;;;;5050314;28;20471;-49
2023/04/02 08:43:00;;;;;;;2.63;1.07;;;17.10;52.00;;;;;;5050625;28;20434;-48
2023/04/02 08:45:43;;;;;;;1.17;1.10;;;17.10;52.00;;;;;;5050338;28;20447;-49
2023/04/02 08:48:11;;;;;;;1.27;1.00;;;17.00;52.00;;;;;;5039325;28;20882;-48
2023/04/02 08:50:39;;;;;;;3.73;1.37;;;17.00;52.30;;;;;;5035787;28;20447;-49
2023/04/02 08:53:34;;;;;;;3.20;1.07;;;17.00;52.40;;;;;;5033458;28;20448;-48
2023/04/02 08:56:07;;;;;;;3.17;1.30;;;17.00;52.20;;;;;;5030316;28;20495;-49
2023/04/02 08:58:43;;;;;;;1.30;1.20;;;17.10;52.20;;;;;;5031728;28;20476;-50
2023/04/02 09:01:38;;;;;;;1.57;1.00;;;17.10;52.10;;;;;;5044470;28;20453;-48
2023/04/02 09:04:13;;;;;;;1.90;1.17;;;17.00;51.90;;;;;;5039408;28;20935;-53
2023/04/02 09:06:40;;;;;;;6.77;1.63;;;16.90;52.10;;;;;;5042817;28;20561;-52
2023/04/02 09:09:07;;;;;;;1.27;1.00;;;16.90;52.40;;;;;;5042409;28;20893;-52
2023/04/02 09:11:46;;;;;;;1.07;0.97;;;17.00;52.40;;;;;;5043986;28;20444;-48
2023/04/02 09:14:19;;;;;;;1.00;1.00;;;17.00;52.30;;;;;;5045773;28;20455;-49
2023/04/02 09:16:54;;;;;;;1.43;1.00;;;17.00;52.40;;;;;;5042405;28;20974;-49
2023/04/02 09:19:31;;;;;;;1.23;1.13;;;16.90;52.90;;;;;;5046204;28;20446;-49
2023/04/02 09:22:21;;;;;;;2.47;1.40;;;16.90;52.60;;;;;;5037214;28;20482;-48
2023/04/02 09:25:01;;;;;;;1.17;1.00;;;17.00;52.40;;;;;;5041020;28;20539;-49
2023/04/02 09:27:33;;;;;;;0.97;0.90;;;17.10;52.30;;;;;;5041539;28;20446;-49
2023/04/02 09:30:06;;;;;;;0.97;0.90;;;17.20;52.70;;;;;;5041737;28;20537;-50
2023/04/02 09:33:06;;;;;;;1.30;1.20;;;17.40;53.00;;;;;;5042326;28;20774;-51
2023/04/02 09:35:33;;;;;;;1.10;1.00;;;17.50;52.80;;;;;;5034797;28;20489;-52
2023/04/02 09:38:11;;;;;;;1.50;1.40;;;17.60;52.80;;;;;;5037081;28;20454;-52
2023/04/02 09:40:45;;;;;;;1.30;1.10;;;17.40;52.20;;;;;;5037315;28;20534;-53
2023/04/02 09:43:18;;;;;;;1.43;1.10;;;17.10;53.40;;;;;;5046314;28;20474;-51
2023/04/02 09:46:12;;;;;;;1.30;1.20;;;16.90;54.00;;;;;;5042553;28;20462;-53
2023/04/02 09:49:00;;;;;;;1.20;1.10;;;17.20;53.70;;;;;;5040862;28;20452;-53
2023/04/02 09:51:30;;;;;;;2.47;1.20;;;17.40;53.90;;;;;;5038245;28;20447;-49
2023/04/02 09:54:02;;;;;;;1.10;1.00;;;17.50;53.20;;;;;;5048575;28;20846;-51
2023/04/02 09:56:28;;;;;;;1.87;1.17;;;17.70;53.20;;;;;;5036194;28;20487;-49
2023/04/02 09:59:14;;;;;;;2.00;0.80;;;17.80;52.50;;;;;;5036053;28;20443;-50
2023/04/02 10:02:22;;;;;;;1.20;1.00;;;17.90;51.60;;;;;;5040343;28;20465;-52
2023/04/02 10:04:48;;;;;;;1.00;0.90;;;18.10;51.70;;;;;;5038378;28;20957;-54
2023/04/02 10:07:41;;;;;;;2.40;1.20;;;18.10;51.10;;;;;;5039587;28;20439;-52
2023/04/02 10:10:29;;;;;;;1.10;1.00;;;18.30;51.20;;;;;;5042779;28;20454;-50
2023/04/02 10:13:10;;;;;;;2.63;1.20;;;18.30;51.30;;;;;;5037460;28;20533;-54
2023/04/02 10:16:05;;;;;;;1.23;1.13;;;18.40;51.20;;;;;;5045283;28;20482;-53
2023/04/02 10:18:50;;;;;;;2.00;0.97;;;18.40;50.60;;;;;;5043468;28;20455;-53
2023/04/02 10:21:21;;;;;;;1.07;0.93;;;18.30;49.80;;;;;;5030529;28;20436;-53
2023/04/02 10:23:48;;;;;;;1.20;1.10;;;18.00;50.60;;;;;;5041702;28;20473;-51
2023/04/02 10:26:32;;;;;;;2.07;0.80;;;18.10;51.10;;;;;;5032154;28;20449;-52
2023/04/02 10:29:01;;;;;;;2.47;1.50;;;18.10;51.30;;;;;;5040748;28;20545;-50
2023/04/02 10:31:42;;;;;;;1.57;1.23;;;18.10;51.60;;;;;;5042471;28;20451;-50
2023/04/02 10:34:28;;;;;;;1.30;1.07;;;18.30;51.90;;;;;;5048443;28;20507;-53
2023/04/02 10:36:58;;;;;;;1.77;1.27;;;18.50;51.30;;;;;;5044196;28;20451;-53
2023/04/02 10:39:37;;;;;;;1.50;1.20;;;18.50;51.00;;;;;;5042438;28;20450;-53
2023/04/02 10:42:03;;;;;;;1.70;1.10;;;18.60;50.70;;;;;;5038961;28;20450;-52
2023/04/02 10:44:59;;;;;;;3.57;1.67;;;18.60;51.00;;;;;;5048269;28;20480;-52
2023/04/02 10:48:06;;;;;;;2.27;1.47;;;18.80;51.60;;;;;;5030801;28;20201;-53
2023/04/02 10:50:35;;;;;;;0.97;0.90;;;18.90;50.70;;;;;;5002881;28;20503;-52
2023/04/02 10:53:19;;;;;;;1.43;0.90;;;18.90;50.60;;;;;;5035526;28;20988;-50
2023/04/02 10:55:55;;;;;;;2.13;1.00;;;19.00;50.10;;;;;;5041758;28;20915;-50
2023/04/02 10:58:27;;;;;;;0.83;0.70;;;19.20;50.20;;;;;;5039550;28;20478;-50
2023/04/02 11:01:02;;;;;;;1.03;0.90;;;19.30;49.30;;;;;;5050236;28;20457;-55
2023/04/02 11:03:44;;;;;;;0.93;0.80;;;19.20;48.60;;;;;;5043661;28;20540;-54
2023/04/02 11:06:19;;;;;;;1.00;0.90;;;19.20;49.00;;;;;;5042186;28;20462;-53
2023/04/02 11:08:50;;;;;;;0.80;0.80;;;19.00;48.20;;;;;;5048655;28;20457;-55
2023/04/02 11:11:26;;;;;;;0.83;0.83;;;19.00;48.10;;;;;;5046369;28;20456;-51
2023/04/02 11:14:00;;;;;;;1.07;0.60;;;19.00;48.70;;;;;;5033948;28;20444;-55
2023/04/02 11:16:27;;;;;;;1.37;0.70;;;19.10;48.80;;;;;;5041948;28;20481;-54
2023/04/02 11:19:14;;;;;;;0.90;0.90;;;19.10;48.70;;;;;;5047385;28;20496;-53
2023/04/02 11:21:43;;;;;;;1.13;0.80;;;19.20;48.60;;;;;;5044622;28;20547;-53
2023/04/02 11:24:29;;;;;;;0.93;0.83;;;19.20;48.70;;;;;;5040671;28;20451;-55
2023/04/02 11:27:09;;;;;;;0.87;0.70;;;19.00;48.70;;;;;;5041340;28;20466;-54
2023/04/02 11:29:39;;;;;;;0.97;0.60;;;18.90;49.30;;;;;;5043931;28;20451;-55
2023/04/02 11:32:14;;;;;;;0.90;0.80;;;18.90;49.20;;;;;;5048655;28;20537;-56
2023/04/02 11:34:40;;;;;;;1.33;0.70;;;18.90;49.80;;;;;;5037758;28;20459;-54
2023/04/02 11:37:29;;;;;;;0.70;0.70;;;18.90;49.60;;;;;;5047623;28;20466;-53
2023/04/02 11:39:57;;;;;;;0.63;0.63;;;18.90;49.20;;;;;;5050070;28;20226;-54
2023/04/02 11:42:27;;;;;;;1.07;0.83;;;18.80;48.60;;;;;;5051157;28;20450;-55
2023/04/02 11:44:54;;;;;;;0.70;0.60;;;18.90;49.20;;;;;;5051247;28;20890;-54
2023/04/02 11:47:28;;;;;;;0.70;0.70;;;18.90;48.80;;;;;;5041659;28;20526;-54
2023/04/02 11:49:54;;;;;;;0.53;0.53;;;18.80;48.60;;;;;;5050202;28;20439;-52
2023/04/02 11:52:23;;;;;;;1.13;1.00;;;18.90;48.50;;;;;;5048373;28;20454;-54
2023/04/02 11:55:23;;;;;;;2.10;1.40;;;18.90;48.90;;;;;;5042986;28;20813;-54
2023/04/02 11:58:08;;;;;;;1.37;0.80;;;19.00;49.20;;;;;;5041227;28;20442;-52
2023/04/02 12:00:58;;;;;;;1.00;0.80;;;19.10;49.00;;;;;;5038478;28;20452;-53
2023/04/02 12:03:48;;;;;;;0.90;0.80;;;19.20;48.60;;;;;;5042689;28;20878;-53
2023/04/02 12:06:41;;;;;;;1.00;1.00;;;19.20;48.00;;;;;;5040718;28;20451;-54
2023/04/02 12:09:26;;;;;;;0.87;0.80;;;19.20;47.90;;;;;;5039513;28;20531;-51
2023/04/02 12:11:56;;;;;;;0.80;0.70;;;19.10;47.60;;;;;;5042818;28;20953;-52
2023/04/02 12:14:34;;;;;;;0.77;0.77;;;19.00;48.60;;;;;;5034699;28;21006;-52
2023/04/02 12:17:01;;;;;;;1.07;1.00;;;19.10;48.90;;;;;;5042796;28;20443;-53
2023/04/02 12:19:29;;;;;;;1.50;0.83;;;19.10;48.30;;;;;;5041680;28;20434;-52
2023/04/02 12:21:56;;;;;;;1.77;1.00;;;19.20;48.40;;;;;;5039987;28;20447;-51
2023/04/02 12:24:29;;;;;;;0.80;0.80;;;19.20;48.20;;;;;;5042361;28;20471;-52
2023/04/02 12:27:21;;;;;;;1.00;0.90;;;19.30;48.50;;;;;;5037840;28;20497;-54
2023/04/02 12:29:48;;;;;;;1.50;1.10;;;19.40;48.90;;;;;;5034148;28;20478;-53
2023/04/02 12:32:23;;;;;;;1.70;1.13;;;19.40;49.00;;;;;;5042731;28;20473;-53
2023/04/02 12:34:51;;;;;;;0.77;0.77;;;19.40;48.70;;;;;;5047764;28;21054;-50
2023/04/02 12:37:24;;;;;;;1.67;1.57;;;19.40;48.00;;;;;;5043449;28;20875;-50
2023/04/02 12:40:00;;;;;;;1.87;1.33;;;19.50;48.40;;;;;;5032657;28;20996;-49
2023/04/02 12:42:36;;;;;;;0.90;0.90;;;19.40;49.00;;;;;;5037837;28;20451;-52
2023/04/02 12:45:03;;;;;;;0.97;0.97;;;19.40;48.70;;;;;;5043070;28;20545;-49
2023/04/02 12:47:29;;;;;;;1.33;1.03;;;19.40;47.60;;;;;;5039214;28;20440;-49
2023/04/02 12:49:57;;;;;;;1.00;0.90;;;19.40;47.70;;;;;;5037952;28;20443;-50
2023/04/02 12:52:28;;;;;;;1.40;1.30;;;19.30;48.20;;;;;;5049467;28;20434;-52
2023/04/02 12:55:05;;;;;;;1.10;1.00;;;19.30;49.00;;;;;;5036396;28;20596;-50
2023/04/02 12:57:32;;;;;;;1.10;1.00;;;19.30;49.50;;;;;;5040551;28;20961;-49
2023/04/02 13:00:21;;;;;;;1.40;1.30;;;19.10;50.00;;;;;;5046777;28;20540;-50
2023/04/02 13:02:57;;;;;;;1.50;1.30;;;19.00;50.30;;;;;;5036255;28;20926;-53
2023/04/02 13:05:52;;;;;;;0.93;0.93;;;18.80;50.90;;;;;;5044880;28;20454;-52
2023/04/02 13:08:37;;;;;;;1.03;0.90;;;18.70;51.40;;;;;;5037906;28;20470;-53
2023/04/02 13:11:04;;;;;;;1.47;0.93;;;18.60;51.60;;;;;;5034224;28;20470;-54
2023/04/02 13:13:41;;;;;;;2.00;1.10;;;18.60;51.70;;;;;;5043518;28;20451;-52
2023/04/02 13:16:16;;;;;;;1.03;0.97;;;18.60;51.40;;;;;;5041194;28;20529;-50
2023/04/02 13:18:46;;;;;;;0.97;0.97;;;18.60;51.70;;;;;;5034725;28;20455;-51
2023/04/02 13:21:18;;;;;;;2.50;1.00;;;18.60;52.30;;;;;;5031728;28;20447;-52
2023/04/02 13:23:44;;;;;;;1.30;1.10;;;18.40;53.30;;;;;;5039251;28;20443;-51
2023/04/02 13:26:24;;;;;;;1.00;0.80;;;18.30;52.90;;;;;;5042482;28;20451;-53
2023/04/02 13:28:58;;;;;;;1.47;1.17;;;18.30;52.80;;;;;;5033554;28;20456;-50